< Cyclone 200505 2005 Season Cyclone 200507 >
Cyclone 200506 (VIVIENNE)
General InformationTrack Information on Google MapsDetailed Wind InformationList of All Images || ResourceGoogle EarthGE AnimationAtom FeedGeoJSON
Detalied Best Track (Time Zone = UTC)
Year Month Day Hour Lat. Long. Pressure (hPa) Wind (kt) Class Image Chart
2005 2 4 00 -14.4 118.0 1005 20 2 Image --
2005 2 4 06 -14.7 118.0 1005 20 2 Image --
2005 2 4 12 -14.9 117.9 1005 20 2 Image --
2005 2 4 18 -15.1 117.8 1000 25 2 Image --
2005 2 5 00 -15.3 117.7 995 30 2 Image --
2005 2 5 06 -15.6 117.3 995 30 2 Image --
2005 2 5 12 -15.9 117.0 995 30 2 Image --
2005 2 5 18 -15.9 116.7 995 30 2 Image --
2005 2 6 00 -16.1 116.5 995 30 2 Image --
2005 2 6 06 -16.3 116.3 995 30 2 Image --
2005 2 6 12 -16.4 116.4 995 30 2 Image --
2005 2 6 18 -16.4 116.5 995 30 2 Image --
2005 2 7 00 -16.4 116.5 995 30 2 Image --
2005 2 7 06 -16.3 116.5 995 30 2 Image --
2005 2 7 12 -16.2 116.5 995 30 2 Image --
2005 2 7 18 -16.0 116.3 995 30 2 Image --
2005 2 8 00 -15.8 116.1 990 35 3 Image --
2005 2 8 06 -15.5 116.1 990 35 3 Image --
2005 2 8 12 -15.3 116.2 990 30 2 Image --
2005 2 8 18 -15.5 116.5 995 25 2 Image --
2005 2 9 00 -15.8 116.8 1000 20 2 Image --
2005 2 9 06 -16.0 117.0 1005 20 2 Image --
2005 2 9 12 -16.2 117.1 1005 20 2 Image --
< Cyclone 200505 2005 Season Cyclone 200507 >

Help